sensor_id;sensor_type;location;lat;lon;timestamp;P1;durP1;ratioP1;P2;durP2;ratioP2
5845;SDS011;2949;50.778;7.094;2023-05-16T00:01:14;17.17;;;10.40;;
5845;SDS011;2949;50.778;7.094;2023-05-16T00:03:40;13.50;;;7.60;;
5845;SDS011;2949;50.778;7.094;2023-05-16T00:06:07;13.43;;;6.70;;
5845;SDS011;2949;50.778;7.094;2023-05-16T00:08:33;7.33;;;5.17;;
5845;SDS011;2949;50.778;7.094;2023-05-16T00:10:58;8.23;;;4.70;;
5845;SDS011;2949;50.778;7.094;2023-05-16T00:13:24;7.53;;;4.90;;
5845;SDS011;2949;50.778;7.094;2023-05-16T00:15:50;8.73;;;4.23;;
5845;SDS011;2949;50.778;7.094;2023-05-16T00:18:17;6.77;;;5.37;;
5845;SDS011;2949;50.778;7.094;2023-05-16T00:20:43;9.87;;;5.70;;
5845;SDS011;2949;50.778;7.094;2023-05-16T00:23:09;11.23;;;6.30;;
5845;SDS011;2949;50.778;7.094;2023-05-16T00:25:35;7.00;;;5.67;;
5845;SDS011;2949;50.778;7.094;2023-05-16T00:28:01;14.50;;;6.00;;
5845;SDS011;2949;50.778;7.094;2023-05-16T00:30:26;7.80;;;5.73;;
5845;SDS011;2949;50.778;7.094;2023-05-16T00:32:53;11.80;;;6.70;;
5845;SDS011;2949;50.778;7.094;2023-05-16T00:35:19;9.67;;;7.43;;
5845;SDS011;2949;50.778;7.094;2023-05-16T00:37:44;9.17;;;7.90;;
5845;SDS011;2949;50.778;7.094;2023-05-16T00:40:10;12.70;;;8.57;;
5845;SDS011;2949;50.778;7.094;2023-05-16T00:42:36;12.20;;;9.60;;
5845;SDS011;2949;50.778;7.094;2023-05-16T00:45:03;15.10;;;10.67;;
5845;SDS011;2949;50.778;7.094;2023-05-16T00:47:29;18.70;;;12.40;;
5845;SDS011;2949;50.778;7.094;2023-05-16T00:49:55;16.03;;;10.43;;
5845;SDS011;2949;50.778;7.094;2023-05-16T00:52:20;19.40;;;11.50;;
5845;SDS011;2949;50.778;7.094;2023-05-16T00:54:46;18.67;;;11.10;;
5845;SDS011;2949;50.778;7.094;2023-05-16T00:57:12;15.10;;;10.70;;
5845;SDS011;2949;50.778;7.094;2023-05-16T00:59:38;13.87;;;10.80;;
5845;SDS011;2949;50.778;7.094;2023-05-16T01:02:04;15.43;;;11.40;;
5845;SDS011;2949;50.778;7.094;2023-05-16T01:04:29;14.57;;;10.83;;
5845;SDS011;2949;50.778;7.094;2023-05-16T01:06:56;16.50;;;12.03;;
5845;SDS011;2949;50.778;7.094;2023-05-16T01:09:22;19.47;;;11.53;;
5845;SDS011;2949;50.778;7.094;2023-05-16T01:11:52;16.93;;;11.50;;
5845;SDS011;2949;50.778;7.094;2023-05-16T01:25:21;19.60;;;12.40;;
5845;SDS011;2949;50.778;7.094;2023-05-16T01:28:14;22.00;;;12.87;;
5845;SDS011;2949;50.778;7.094;2023-05-16T01:30:41;18.93;;;12.77;;
5845;SDS011;2949;50.778;7.094;2023-05-16T01:33:07;17.97;;;13.50;;
5845;SDS011;2949;50.778;7.094;2023-05-16T01:35:34;19.73;;;12.40;;
5845;SDS011;2949;50.778;7.094;2023-05-16T01:38:24;15.80;;;11.20;;
5845;SDS011;2949;50.778;7.094;2023-05-16T01:43:41;20.77;;;13.37;;
5845;SDS011;2949;50.778;7.094;2023-05-16T01:46:10;18.63;;;12.60;;
5845;SDS011;2949;50.778;7.094;2023-05-16T01:48:42;15.63;;;11.40;;
5845;SDS011;2949;50.778;7.094;2023-05-16T01:51:15;14.13;;;10.03;;
5845;SDS011;2949;50.778;7.094;2023-05-16T01:53:42;11.47;;;7.90;;
5845;SDS011;2949;50.778;7.094;2023-05-16T01:56:10;12.03;;;9.13;;
5845;SDS011;2949;50.778;7.094;2023-05-16T01:58:39;18.67;;;9.80;;
5845;SDS011;2949;50.778;7.094;2023-05-16T02:01:06;13.40;;;8.70;;
5845;SDS011;2949;50.778;7.094;2023-05-16T02:03:32;13.37;;;9.13;;
5845;SDS011;2949;50.778;7.094;2023-05-16T02:05:58;16.17;;;9.87;;
5845;SDS011;2949;50.778;7.094;2023-05-16T02:08:24;18.13;;;11.37;;
5845;SDS011;2949;50.778;7.094;2023-05-16T02:10:53;21.13;;;13.27;;
5845;SDS011;2949;50.778;7.094;2023-05-16T02:13:18;22.30;;;13.53;;
5845;SDS011;2949;50.778;7.094;2023-05-16T02:15:44;21.40;;;13.77;;
5845;SDS011;2949;50.778;7.094;2023-05-16T02:18:09;21.53;;;13.23;;
5845;SDS011;2949;50.778;7.094;2023-05-16T02:20:36;27.13;;;15.17;;
5845;SDS011;2949;50.778;7.094;2023-05-16T02:23:02;22.20;;;14.10;;
5845;SDS011;2949;50.778;7.094;2023-05-16T02:25:27;25.10;;;15.03;;
5845;SDS011;2949;50.778;7.094;2023-05-16T02:27:53;22.83;;;15.53;;
5845;SDS011;2949;50.778;7.094;2023-05-16T02:30:19;26.70;;;16.40;;
5845;SDS011;2949;50.778;7.094;2023-05-16T02:32:44;26.77;;;16.37;;
5845;SDS011;2949;50.778;7.094;2023-05-16T02:35:10;29.33;;;16.80;;
5845;SDS011;2949;50.778;7.094;2023-05-16T02:37:36;29.43;;;17.73;;
5845;SDS011;2949;50.778;7.094;2023-05-16T02:40:02;28.67;;;16.57;;
5845;SDS011;2949;50.778;7.094;2023-05-16T02:42:29;32.80;;;17.80;;
5845;SDS011;2949;50.778;7.094;2023-05-16T02:44:56;33.87;;;19.70;;
5845;SDS011;2949;50.778;7.094;2023-05-16T02:47:21;33.10;;;18.93;;
5845;SDS011;2949;50.778;7.094;2023-05-16T02:49:47;37.57;;;19.97;;
5845;SDS011;2949;50.778;7.094;2023-05-16T02:52:12;38.47;;;22.27;;
5845;SDS011;2949;50.778;7.094;2023-05-16T02:54:38;41.80;;;21.67;;
5845;SDS011;2949;50.778;7.094;2023-05-16T02:57:04;40.33;;;19.97;;
5845;SDS011;2949;50.778;7.094;2023-05-16T02:59:29;40.50;;;21.17;;
5845;SDS011;2949;50.778;7.094;2023-05-16T03:01:55;36.23;;;19.43;;
5845;SDS011;2949;50.778;7.094;2023-05-16T03:04:20;23.40;;;14.50;;
5845;SDS011;2949;50.778;7.094;2023-05-16T03:06:47;41.23;;;15.70;;
5845;SDS011;2949;50.778;7.094;2023-05-16T03:09:15;19.40;;;9.73;;
5845;SDS011;2949;50.778;7.094;2023-05-16T03:11:40;23.13;;;9.50;;
5845;SDS011;2949;50.778;7.094;2023-05-16T03:14:06;13.40;;;7.43;;
5845;SDS011;2949;50.778;7.094;2023-05-16T03:16:32;14.37;;;7.23;;
5845;SDS011;2949;50.778;7.094;2023-05-16T03:18:57;14.07;;;7.63;;
5845;SDS011;2949;50.778;7.094;2023-05-16T03:21:23;15.97;;;7.40;;
5845;SDS011;2949;50.778;7.094;2023-05-16T03:23:49;19.13;;;7.03;;
5845;SDS011;2949;50.778;7.094;2023-05-16T03:26:14;17.63;;;7.40;;
5845;SDS011;2949;50.778;7.094;2023-05-16T03:28:40;26.27;;;7.63;;
5845;SDS011;2949;50.778;7.094;2023-05-16T03:31:05;15.07;;;7.20;;
5845;SDS011;2949;50.778;7.094;2023-05-16T03:33:31;27.00;;;8.37;;
5845;SDS011;2949;50.778;7.094;2023-05-16T03:35:56;22.23;;;7.70;;
5845;SDS011;2949;50.778;7.094;2023-05-16T03:38:22;19.37;;;7.13;;
5845;SDS011;2949;50.778;7.094;2023-05-16T03:40:48;16.40;;;6.90;;
5845;SDS011;2949;50.778;7.094;2023-05-16T03:43:13;17.73;;;8.10;;
5845;SDS011;2949;50.778;7.094;2023-05-16T03:45:39;23.40;;;7.50;;
5845;SDS011;2949;50.778;7.094;2023-05-16T03:48:04;25.80;;;8.13;;
5845;SDS011;2949;50.778;7.094;2023-05-16T03:50:30;17.43;;;8.40;;
5845;SDS011;2949;50.778;7.094;2023-05-16T03:52:55;19.47;;;8.13;;
5845;SDS011;2949;50.778;7.094;2023-05-16T03:55:21;29.87;;;9.87;;
5845;SDS011;2949;50.778;7.094;2023-05-16T03:57:46;34.90;;;10.03;;
5845;SDS011;2949;50.778;7.094;2023-05-16T04:00:14;24.90;;;9.43;;
5845;SDS011;2949;50.778;7.094;2023-05-16T04:02:39;21.87;;;8.70;;
5845;SDS011;2949;50.778;7.094;2023-05-16T04:05:08;25.03;;;9.03;;
5845;SDS011;2949;50.778;7.094;2023-05-16T04:07:35;26.03;;;9.70;;
5845;SDS011;2949;50.778;7.094;2023-05-16T04:10:01;35.90;;;10.67;;
5845;SDS011;2949;50.778;7.094;2023-05-16T04:12:27;23.97;;;9.40;;
5845;SDS011;2949;50.778;7.094;2023-05-16T04:14:53;32.00;;;10.77;;
5845;SDS011;2949;50.778;7.094;2023-05-16T04:17:18;27.37;;;9.80;;
5845;SDS011;2949;50.778;7.094;2023-05-16T04:19:44;25.77;;;10.10;;
5845;SDS011;2949;50.778;7.094;2023-05-16T04:22:10;30.73;;;10.20;;
5845;SDS011;2949;50.778;7.094;2023-05-16T04:24:35;37.57;;;9.80;;
5845;SDS011;2949;50.778;7.094;2023-05-16T04:27:01;30.47;;;9.40;;
5845;SDS011;2949;50.778;7.094;2023-05-16T04:29:26;32.57;;;10.00;;
5845;SDS011;2949;50.778;7.094;2023-05-16T04:31:52;25.70;;;8.70;;
5845;SDS011;2949;50.778;7.094;2023-05-16T04:34:17;26.90;;;8.23;;
5845;SDS011;2949;50.778;7.094;2023-05-16T04:36:43;30.53;;;9.23;;
5845;SDS011;2949;50.778;7.094;2023-05-16T04:39:09;27.07;;;7.60;;
5845;SDS011;2949;50.778;7.094;2023-05-16T04:41:34;26.07;;;10.17;;
5845;SDS011;2949;50.778;7.094;2023-05-16T04:44:00;23.47;;;9.00;;
5845;SDS011;2949;50.778;7.094;2023-05-16T04:46:28;40.63;;;10.10;;
5845;SDS011;2949;50.778;7.094;2023-05-16T04:48:54;31.03;;;9.43;;
5845;SDS011;2949;50.778;7.094;2023-05-16T04:51:19;33.70;;;9.00;;
5845;SDS011;2949;50.778;7.094;2023-05-16T04:53:45;33.87;;;7.93;;
5845;SDS011;2949;50.778;7.094;2023-05-16T04:56:11;32.07;;;9.30;;
5845;SDS011;2949;50.778;7.094;2023-05-16T04:58:37;41.80;;;8.33;;
5845;SDS011;2949;50.778;7.094;2023-05-16T05:01:02;38.97;;;8.00;;
5845;SDS011;2949;50.778;7.094;2023-05-16T05:03:28;32.00;;;9.17;;
5845;SDS011;2949;50.778;7.094;2023-05-16T05:05:54;33.33;;;8.10;;
5845;SDS011;2949;50.778;7.094;2023-05-16T05:08:20;22.37;;;8.10;;
5845;SDS011;2949;50.778;7.094;2023-05-16T05:10:45;25.07;;;8.17;;
5845;SDS011;2949;50.778;7.094;2023-05-16T05:13:11;31.80;;;8.60;;
5845;SDS011;2949;50.778;7.094;2023-05-16T05:15:36;25.67;;;7.90;;
5845;SDS011;2949;50.778;7.094;2023-05-16T05:18:02;22.53;;;7.90;;
5845;SDS011;2949;50.778;7.094;2023-05-16T05:20:28;34.27;;;6.97;;
5845;SDS011;2949;50.778;7.094;2023-05-16T05:22:54;39.53;;;7.50;;
5845;SDS011;2949;50.778;7.094;2023-05-16T05:25:19;27.80;;;7.30;;
5845;SDS011;2949;50.778;7.094;2023-05-16T05:27:45;16.13;;;6.60;;
5845;SDS011;2949;50.778;7.094;2023-05-16T05:30:10;23.23;;;6.30;;
5845;SDS011;2949;50.778;7.094;2023-05-16T05:32:36;17.20;;;6.67;;
5845;SDS011;2949;50.778;7.094;2023-05-16T05:35:02;22.47;;;6.87;;
5845;SDS011;2949;50.778;7.094;2023-05-16T05:37:28;30.67;;;7.10;;
5845;SDS011;2949;50.778;7.094;2023-05-16T05:39:54;17.83;;;7.70;;
5845;SDS011;2949;50.778;7.094;2023-05-16T05:42:19;15.30;;;7.40;;
5845;SDS011;2949;50.778;7.094;2023-05-16T05:44:45;29.73;;;6.20;;
5845;SDS011;2949;50.778;7.094;2023-05-16T05:47:11;18.73;;;4.50;;
5845;SDS011;2949;50.778;7.094;2023-05-16T05:49:36;14.03;;;4.93;;
5845;SDS011;2949;50.778;7.094;2023-05-16T05:52:02;12.57;;;3.53;;
5845;SDS011;2949;50.778;7.094;2023-05-16T05:54:28;23.27;;;3.63;;
5845;SDS011;2949;50.778;7.094;2023-05-16T05:56:54;10.30;;;2.70;;
5845;SDS011;2949;50.778;7.094;2023-05-16T05:59:21;16.87;;;3.67;;
5845;SDS011;2949;50.778;7.094;2023-05-16T06:01:46;27.53;;;4.57;;
5845;SDS011;2949;50.778;7.094;2023-05-16T06:04:16;19.10;;;3.67;;
5845;SDS011;2949;50.778;7.094;2023-05-16T06:06:42;20.53;;;4.00;;
5845;SDS011;2949;50.778;7.094;2023-05-16T06:09:08;14.37;;;3.53;;
5845;SDS011;2949;50.778;7.094;2023-05-16T06:11:33;9.90;;;3.60;;
5845;SDS011;2949;50.778;7.094;2023-05-16T06:13:59;10.63;;;3.30;;
5845;SDS011;2949;50.778;7.094;2023-05-16T06:16:24;15.87;;;4.20;;
5845;SDS011;2949;50.778;7.094;2023-05-16T06:18:50;12.73;;;4.10;;
5845;SDS011;2949;50.778;7.094;2023-05-16T06:21:15;9.50;;;3.00;;
5845;SDS011;2949;50.778;7.094;2023-05-16T06:23:41;16.80;;;3.73;;
5845;SDS011;2949;50.778;7.094;2023-05-16T06:26:07;9.67;;;2.93;;
5845;SDS011;2949;50.778;7.094;2023-05-16T06:28:32;14.20;;;2.70;;
5845;SDS011;2949;50.778;7.094;2023-05-16T06:30:58;12.50;;;2.80;;
5845;SDS011;2949;50.778;7.094;2023-05-16T06:33:23;11.30;;;2.70;;
5845;SDS011;2949;50.778;7.094;2023-05-16T06:35:49;15.60;;;2.57;;
5845;SDS011;2949;50.778;7.094;2023-05-16T06:38:16;6.40;;;2.07;;
5845;SDS011;2949;50.778;7.094;2023-05-16T06:40:43;7.87;;;1.90;;
5845;SDS011;2949;50.778;7.094;2023-05-16T06:43:09;5.47;;;2.30;;
5845;SDS011;2949;50.778;7.094;2023-05-16T06:45:36;10.10;;;2.27;;
5845;SDS011;2949;50.778;7.094;2023-05-16T06:48:01;12.90;;;2.07;;
5845;SDS011;2949;50.778;7.094;2023-05-16T06:50:28;7.40;;;1.83;;
5845;SDS011;2949;50.778;7.094;2023-05-16T06:52:53;13.37;;;1.90;;
5845;SDS011;2949;50.778;7.094;2023-05-16T06:55:19;12.70;;;1.97;;
5845;SDS011;2949;50.778;7.094;2023-05-16T06:57:44;13.50;;;1.77;;
5845;SDS011;2949;50.778;7.094;2023-05-16T07:00:10;8.70;;;2.03;;
5845;SDS011;2949;50.778;7.094;2023-05-16T07:02:36;11.27;;;2.30;;
5845;SDS011;2949;50.778;7.094;2023-05-16T07:05:01;10.73;;;1.70;;
5845;SDS011;2949;50.778;7.094;2023-05-16T07:07:27;6.27;;;1.70;;
5845;SDS011;2949;50.778;7.094;2023-05-16T07:09:53;11.80;;;1.80;;
5845;SDS011;2949;50.778;7.094;2023-05-16T07:12:18;7.93;;;2.13;;
5845;SDS011;2949;50.778;7.094;2023-05-16T07:14:44;5.57;;;1.60;;
5845;SDS011;2949;50.778;7.094;2023-05-16T07:17:10;5.23;;;1.40;;
5845;SDS011;2949;50.778;7.094;2023-05-16T07:19:36;12.57;;;2.30;;
5845;SDS011;2949;50.778;7.094;2023-05-16T07:22:01;3.07;;;1.30;;
5845;SDS011;2949;50.778;7.094;2023-05-16T07:24:27;10.27;;;2.10;;
5845;SDS011;2949;50.778;7.094;2023-05-16T07:26:53;8.43;;;1.93;;
5845;SDS011;2949;50.778;7.094;2023-05-16T07:29:18;7.47;;;1.47;;
5845;SDS011;2949;50.778;7.094;2023-05-16T07:31:44;8.50;;;1.57;;
5845;SDS011;2949;50.778;7.094;2023-05-16T07:34:10;9.50;;;2.10;;
5845;SDS011;2949;50.778;7.094;2023-05-16T07:36:36;12.03;;;1.97;;
5845;SDS011;2949;50.778;7.094;2023-05-16T07:39:01;12.40;;;1.67;;
5845;SDS011;2949;50.778;7.094;2023-05-16T07:41:28;10.63;;;1.23;;
5845;SDS011;2949;50.778;7.094;2023-05-16T07:43:54;7.47;;;1.87;;
5845;SDS011;2949;50.778;7.094;2023-05-16T07:46:19;8.17;;;2.40;;
5845;SDS011;2949;50.778;7.094;2023-05-16T07:48:45;4.33;;;0.90;;
5845;SDS011;2949;50.778;7.094;2023-05-16T07:51:10;9.47;;;1.50;;
5845;SDS011;2949;50.778;7.094;2023-05-16T07:53:36;6.63;;;1.33;;
5845;SDS011;2949;50.778;7.094;2023-05-16T07:56:02;8.20;;;1.50;;
5845;SDS011;2949;50.778;7.094;2023-05-16T07:58:28;5.70;;;1.10;;
5845;SDS011;2949;50.778;7.094;2023-05-16T08:00:53;7.53;;;1.37;;
5845;SDS011;2949;50.778;7.094;2023-05-16T08:03:19;6.10;;;1.40;;
5845;SDS011;2949;50.778;7.094;2023-05-16T08:05:44;4.97;;;1.50;;
5845;SDS011;2949;50.778;7.094;2023-05-16T08:08:10;3.93;;;1.13;;
5845;SDS011;2949;50.778;7.094;2023-05-16T08:10:35;5.90;;;1.10;;
5845;SDS011;2949;50.778;7.094;2023-05-16T08:13:01;4.70;;;1.40;;
5845;SDS011;2949;50.778;7.094;2023-05-16T08:15:26;10.63;;;1.60;;
5845;SDS011;2949;50.778;7.094;2023-05-16T08:17:58;3.27;;;1.00;;
5845;SDS011;2949;50.778;7.094;2023-05-16T08:20:24;4.93;;;1.00;;
5845;SDS011;2949;50.778;7.094;2023-05-16T08:22:50;7.27;;;1.30;;
5845;SDS011;2949;50.778;7.094;2023-05-16T08:25:16;6.60;;;1.70;;
5845;SDS011;2949;50.778;7.094;2023-05-16T08:27:43;5.03;;;1.23;;
5845;SDS011;2949;50.778;7.094;2023-05-16T08:30:09;5.73;;;1.57;;
5845;SDS011;2949;50.778;7.094;2023-05-16T08:32:36;5.57;;;1.77;;
5845;SDS011;2949;50.778;7.094;2023-05-16T08:35:01;7.40;;;1.30;;
5845;SDS011;2949;50.778;7.094;2023-05-16T08:37:27;9.53;;;1.90;;
5845;SDS011;2949;50.778;7.094;2023-05-16T08:39:52;7.30;;;1.53;;
5845;SDS011;2949;50.778;7.094;2023-05-16T08:42:18;7.97;;;1.30;;
5845;SDS011;2949;50.778;7.094;2023-05-16T08:44:44;4.77;;;1.17;;
5845;SDS011;2949;50.778;7.094;2023-05-16T08:47:17;5.20;;;1.97;;
5845;SDS011;2949;50.778;7.094;2023-05-16T08:49:46;3.50;;;0.80;;
5845;SDS011;2949;50.778;7.094;2023-05-16T08:52:12;6.53;;;0.90;;
5845;SDS011;2949;50.778;7.094;2023-05-16T08:54:41;7.23;;;1.23;;
5845;SDS011;2949;50.778;7.094;2023-05-16T08:57:08;4.00;;;1.30;;
5845;SDS011;2949;50.778;7.094;2023-05-16T08:59:33;3.90;;;0.87;;
5845;SDS011;2949;50.778;7.094;2023-05-16T09:01:59;7.43;;;1.33;;
5845;SDS011;2949;50.778;7.094;2023-05-16T09:04:25;3.80;;;0.83;;
5845;SDS011;2949;50.778;7.094;2023-05-16T09:06:51;4.97;;;1.07;;
5845;SDS011;2949;50.778;7.094;2023-05-16T09:09:18;6.90;;;1.20;;
5845;SDS011;2949;50.778;7.094;2023-05-16T09:11:43;5.03;;;0.70;;
5845;SDS011;2949;50.778;7.094;2023-05-16T09:14:09;7.53;;;0.97;;
5845;SDS011;2949;50.778;7.094;2023-05-16T09:16:35;6.13;;;1.17;;
5845;SDS011;2949;50.778;7.094;2023-05-16T09:19:01;12.57;;;1.77;;
5845;SDS011;2949;50.778;7.094;2023-05-16T09:21:27;9.73;;;1.33;;
5845;SDS011;2949;50.778;7.094;2023-05-16T09:23:53;5.00;;;1.90;;
5845;SDS011;2949;50.778;7.094;2023-05-16T09:26:19;7.40;;;1.33;;
5845;SDS011;2949;50.778;7.094;2023-05-16T09:28:46;7.27;;;1.97;;
5845;SDS011;2949;50.778;7.094;2023-05-16T09:31:22;9.80;;;2.33;;
5845;SDS011;2949;50.778;7.094;2023-05-16T09:33:50;4.77;;;1.43;;
5845;SDS011;2949;50.778;7.094;2023-05-16T09:36:22;10.23;;;2.07;;
5845;SDS011;2949;50.778;7.094;2023-05-16T09:38:48;6.30;;;1.60;;
5845;SDS011;2949;50.778;7.094;2023-05-16T09:41:15;7.20;;;1.77;;
5845;SDS011;2949;50.778;7.094;2023-05-16T09:43:41;7.33;;;1.90;;
5845;SDS011;2949;50.778;7.094;2023-05-16T09:46:07;9.00;;;1.60;;
5845;SDS011;2949;50.778;7.094;2023-05-16T09:48:36;3.57;;;1.20;;
5845;SDS011;2949;50.778;7.094;2023-05-16T09:51:11;5.67;;;1.60;;
5845;SDS011;2949;50.778;7.094;2023-05-16T09:53:38;5.57;;;1.27;;
5845;SDS011;2949;50.778;7.094;2023-05-16T09:56:06;11.13;;;1.47;;
5845;SDS011;2949;50.778;7.094;2023-05-16T09:58:37;9.67;;;1.60;;
5845;SDS011;2949;50.778;7.094;2023-05-16T10:01:04;6.73;;;1.40;;
5845;SDS011;2949;50.778;7.094;2023-05-16T10:03:32;6.23;;;1.20;;
5845;SDS011;2949;50.778;7.094;2023-05-16T10:05:59;2.57;;;1.13;;
5845;SDS011;2949;50.778;7.094;2023-05-16T10:08:26;4.47;;;1.23;;
5845;SDS011;2949;50.778;7.094;2023-05-16T10:10:54;6.70;;;1.47;;
5845;SDS011;2949;50.778;7.094;2023-05-16T10:13:21;4.20;;;1.37;;
5845;SDS011;2949;50.778;7.094;2023-05-16T10:15:49;4.13;;;1.37;;
5845;SDS011;2949;50.778;7.094;2023-05-16T10:18:19;8.37;;;1.40;;
5845;SDS011;2949;50.778;7.094;2023-05-16T10:20:46;3.50;;;1.37;;
5845;SDS011;2949;50.778;7.094;2023-05-16T10:23:17;10.13;;;1.37;;
5845;SDS011;2949;50.778;7.094;2023-05-16T10:25:44;7.13;;;1.10;;
5845;SDS011;2949;50.778;7.094;2023-05-16T10:28:12;2.20;;;1.17;;
5845;SDS011;2949;50.778;7.094;2023-05-16T10:30:39;10.10;;;2.13;;
5845;SDS011;2949;50.778;7.094;2023-05-16T10:33:08;6.17;;;1.23;;
5845;SDS011;2949;50.778;7.094;2023-05-16T10:35:38;5.50;;;1.67;;
5845;SDS011;2949;50.778;7.094;2023-05-16T10:38:04;7.60;;;1.67;;
5845;SDS011;2949;50.778;7.094;2023-05-16T10:40:31;3.70;;;1.20;;
5845;SDS011;2949;50.778;7.094;2023-05-16T10:42:58;14.07;;;2.50;;
5845;SDS011;2949;50.778;7.094;2023-05-16T10:45:25;3.60;;;1.47;;
5845;SDS011;2949;50.778;7.094;2023-05-16T10:55:46;4.50;;;1.40;;
5845;SDS011;2949;50.778;7.094;2023-05-16T10:58:17;8.00;;;1.80;;
5845;SDS011;2949;50.778;7.094;2023-05-16T11:06:23;3.30;;;1.17;;
5845;SDS011;2949;50.778;7.094;2023-05-16T11:11:40;5.80;;;1.50;;
5845;SDS011;2949;50.778;7.094;2023-05-16T11:16:49;2.70;;;1.20;;
5845;SDS011;2949;50.778;7.094;2023-05-16T11:19:50;2.60;;;1.00;;
5845;SDS011;2949;50.778;7.094;2023-05-16T11:22:29;6.03;;;1.23;;
5845;SDS011;2949;50.778;7.094;2023-05-16T11:25:02;6.43;;;0.97;;
5845;SDS011;2949;50.778;7.094;2023-05-16T11:27:31;4.80;;;1.10;;
5845;SDS011;2949;50.778;7.094;2023-05-16T11:32:38;7.17;;;1.10;;
5845;SDS011;2949;50.778;7.094;2023-05-16T11:35:05;5.23;;;1.20;;
5845;SDS011;2949;50.778;7.094;2023-05-16T11:37:32;1.50;;;0.90;;
5845;SDS011;2949;50.778;7.094;2023-05-16T11:40:00;5.00;;;1.20;;
5845;SDS011;2949;50.778;7.094;2023-05-16T11:42:34;6.60;;;1.10;;
5845;SDS011;2949;50.778;7.094;2023-05-16T11:45:08;9.30;;;1.30;;
5845;SDS011;2949;50.778;7.094;2023-05-16T11:47:45;12.50;;;1.47;;
5845;SDS011;2949;50.778;7.094;2023-05-16T11:50:12;3.17;;;1.27;;
5845;SDS011;2949;50.778;7.094;2023-05-16T11:52:41;6.33;;;1.53;;
5845;SDS011;2949;50.778;7.094;2023-05-16T11:55:08;4.60;;;1.10;;
5845;SDS011;2949;50.778;7.094;2023-05-16T11:57:36;4.77;;;1.30;;
5845;SDS011;2949;50.778;7.094;2023-05-16T12:00:03;7.97;;;0.83;;
5845;SDS011;2949;50.778;7.094;2023-05-16T12:02:40;2.50;;;0.90;;
5845;SDS011;2949;50.778;7.094;2023-05-16T12:05:06;7.10;;;1.50;;
5845;SDS011;2949;50.778;7.094;2023-05-16T12:07:33;3.37;;;0.90;;
5845;SDS011;2949;50.778;7.094;2023-05-16T12:09:59;6.43;;;1.37;;
5845;SDS011;2949;50.778;7.094;2023-05-16T12:12:29;5.07;;;1.33;;
5845;SDS011;2949;50.778;7.094;2023-05-16T12:14:55;5.10;;;1.50;;
5845;SDS011;2949;50.778;7.094;2023-05-16T12:17:21;7.33;;;1.50;;
5845;SDS011;2949;50.778;7.094;2023-05-16T12:19:46;8.20;;;1.23;;
5845;SDS011;2949;50.778;7.094;2023-05-16T12:22:16;12.37;;;1.80;;
5845;SDS011;2949;50.778;7.094;2023-05-16T12:24:45;15.13;;;1.37;;
5845;SDS011;2949;50.778;7.094;2023-05-16T12:27:11;7.10;;;1.17;;
5845;SDS011;2949;50.778;7.094;2023-05-16T12:29:37;7.63;;;1.20;;
5845;SDS011;2949;50.778;7.094;2023-05-16T12:32:02;2.67;;;1.50;;
5845;SDS011;2949;50.778;7.094;2023-05-16T12:34:31;13.90;;;1.87;;
5845;SDS011;2949;50.778;7.094;2023-05-16T12:36:57;8.10;;;1.50;;
5845;SDS011;2949;50.778;7.094;2023-05-16T12:39:23;4.10;;;0.80;;
5845;SDS011;2949;50.778;7.094;2023-05-16T12:41:49;3.13;;;1.33;;
5845;SDS011;2949;50.778;7.094;2023-05-16T12:44:15;6.37;;;1.07;;
5845;SDS011;2949;50.778;7.094;2023-05-16T12:46:43;5.47;;;1.60;;
5845;SDS011;2949;50.778;7.094;2023-05-16T12:49:10;4.33;;;1.77;;
5845;SDS011;2949;50.778;7.094;2023-05-16T12:51:37;6.70;;;2.00;;
5845;SDS011;2949;50.778;7.094;2023-05-16T12:54:10;4.43;;;1.40;;
5845;SDS011;2949;50.778;7.094;2023-05-16T12:56:42;4.63;;;1.40;;
5845;SDS011;2949;50.778;7.094;2023-05-16T12:59:08;5.50;;;1.10;;
5845;SDS011;2949;50.778;7.094;2023-05-16T13:01:34;5.33;;;0.93;;
5845;SDS011;2949;50.778;7.094;2023-05-16T13:04:01;1.03;;;0.53;;
5845;SDS011;2949;50.778;7.094;2023-05-16T13:06:27;8.67;;;0.80;;
5845;SDS011;2949;50.778;7.094;2023-05-16T13:08:53;7.60;;;1.93;;
5845;SDS011;2949;50.778;7.094;2023-05-16T13:11:19;1.37;;;0.60;;
5845;SDS011;2949;50.778;7.094;2023-05-16T13:13:45;6.73;;;0.83;;
5845;SDS011;2949;50.778;7.094;2023-05-16T13:16:10;2.00;;;0.73;;
5845;SDS011;2949;50.778;7.094;2023-05-16T13:18:36;3.30;;;0.70;;
5845;SDS011;2949;50.778;7.094;2023-05-16T13:21:02;1.47;;;0.40;;
5845;SDS011;2949;50.778;7.094;2023-05-16T13:23:30;2.47;;;0.60;;
5845;SDS011;2949;50.778;7.094;2023-05-16T13:25:57;3.33;;;0.77;;
5845;SDS011;2949;50.778;7.094;2023-05-16T13:28:23;3.80;;;1.13;;
5845;SDS011;2949;50.778;7.094;2023-05-16T13:30:49;1.50;;;0.70;;
5845;SDS011;2949;50.778;7.094;2023-05-16T13:33:15;3.13;;;0.90;;
5845;SDS011;2949;50.778;7.094;2023-05-16T13:35:41;3.43;;;0.90;;
5845;SDS011;2949;50.778;7.094;2023-05-16T13:38:07;4.70;;;1.00;;
5845;SDS011;2949;50.778;7.094;2023-05-16T13:40:33;5.63;;;1.00;;
5845;SDS011;2949;50.778;7.094;2023-05-16T13:42:59;4.33;;;0.80;;
5845;SDS011;2949;50.778;7.094;2023-05-16T13:45:25;6.20;;;1.30;;
5845;SDS011;2949;50.778;7.094;2023-05-16T13:47:51;2.80;;;1.03;;
5845;SDS011;2949;50.778;7.094;2023-05-16T13:50:16;3.53;;;0.87;;
5845;SDS011;2949;50.778;7.094;2023-05-16T13:52:42;8.03;;;1.57;;
5845;SDS011;2949;50.778;7.094;2023-05-16T13:55:08;2.00;;;0.63;;
5845;SDS011;2949;50.778;7.094;2023-05-16T13:57:34;3.20;;;0.70;;
5845;SDS011;2949;50.778;7.094;2023-05-16T14:00:00;10.20;;;1.20;;
5845;SDS011;2949;50.778;7.094;2023-05-16T14:02:25;5.60;;;1.43;;
5845;SDS011;2949;50.778;7.094;2023-05-16T14:04:51;5.43;;;1.03;;
5845;SDS011;2949;50.778;7.094;2023-05-16T14:07:17;2.53;;;0.70;;
5845;SDS011;2949;50.778;7.094;2023-05-16T14:09:43;5.13;;;1.13;;
5845;SDS011;2949;50.778;7.094;2023-05-16T14:12:09;3.90;;;1.10;;
5845;SDS011;2949;50.778;7.094;2023-05-16T14:14:34;1.77;;;1.10;;
5845;SDS011;2949;50.778;7.094;2023-05-16T14:17:00;9.77;;;1.20;;
5845;SDS011;2949;50.778;7.094;2023-05-16T14:19:27;2.83;;;1.27;;
5845;SDS011;2949;50.778;7.094;2023-05-16T14:21:56;2.10;;;0.70;;
5845;SDS011;2949;50.778;7.094;2023-05-16T14:24:21;7.83;;;0.90;;
5845;SDS011;2949;50.778;7.094;2023-05-16T14:26:47;6.33;;;1.00;;
5845;SDS011;2949;50.778;7.094;2023-05-16T14:29:12;1.50;;;0.60;;
5845;SDS011;2949;50.778;7.094;2023-05-16T14:31:38;3.33;;;0.90;;
5845;SDS011;2949;50.778;7.094;2023-05-16T14:34:04;3.13;;;1.20;;
5845;SDS011;2949;50.778;7.094;2023-05-16T14:36:30;0.80;;;0.73;;
5845;SDS011;2949;50.778;7.094;2023-05-16T14:38:56;2.33;;;0.70;;
5845;SDS011;2949;50.778;7.094;2023-05-16T14:41:22;3.00;;;0.57;;
5845;SDS011;2949;50.778;7.094;2023-05-16T14:43:47;2.20;;;0.70;;
5845;SDS011;2949;50.778;7.094;2023-05-16T14:46:13;1.23;;;0.77;;
5845;SDS011;2949;50.778;7.094;2023-05-16T14:48:38;2.40;;;0.70;;
5845;SDS011;2949;50.778;7.094;2023-05-16T14:51:04;3.73;;;0.80;;
5845;SDS011;2949;50.778;7.094;2023-05-16T14:53:30;0.77;;;0.60;;
5845;SDS011;2949;50.778;7.094;2023-05-16T14:55:57;6.13;;;1.13;;
5845;SDS011;2949;50.778;7.094;2023-05-16T14:58:23;5.40;;;1.17;;
5845;SDS011;2949;50.778;7.094;2023-05-16T15:00:49;3.13;;;0.97;;
5845;SDS011;2949;50.778;7.094;2023-05-16T15:03:15;3.40;;;1.00;;
5845;SDS011;2949;50.778;7.094;2023-05-16T15:05:41;1.83;;;1.20;;
5845;SDS011;2949;50.778;7.094;2023-05-16T15:08:07;3.93;;;0.97;;
5845;SDS011;2949;50.778;7.094;2023-05-16T15:10:33;2.73;;;1.10;;
5845;SDS011;2949;50.778;7.094;2023-05-16T15:12:58;2.30;;;0.97;;
5845;SDS011;2949;50.778;7.094;2023-05-16T15:15:24;1.27;;;0.77;;
5845;SDS011;2949;50.778;7.094;2023-05-16T15:17:49;4.97;;;1.10;;
5845;SDS011;2949;50.778;7.094;2023-05-16T15:20:16;2.00;;;1.67;;
5845;SDS011;2949;50.778;7.094;2023-05-16T15:22:41;1.63;;;1.03;;
5845;SDS011;2949;50.778;7.094;2023-05-16T15:25:07;5.23;;;1.10;;
5845;SDS011;2949;50.778;7.094;2023-05-16T15:27:33;2.13;;;0.73;;
5845;SDS011;2949;50.778;7.094;2023-05-16T15:29:59;2.00;;;0.80;;
5845;SDS011;2949;50.778;7.094;2023-05-16T15:32:25;4.70;;;1.20;;
5845;SDS011;2949;50.778;7.094;2023-05-16T15:34:50;3.83;;;0.80;;
5845;SDS011;2949;50.778;7.094;2023-05-16T15:37:16;6.20;;;1.03;;
5845;SDS011;2949;50.778;7.094;2023-05-16T15:39:41;1.53;;;1.03;;